Time;durP1;ratioP1;P1;durP2;ratioP2;P2;SDS_P1;SDS_P2;PMS_P1;PMS_P2;Temp;Humidity;BMP_temperature;BMP_pressure;BME280_temperature;BME280_humidity;BME280_pressure;Samples;Min_cycle;Max_cycle;Signal;HPM_P1;HPM_P2
2022/02/28 00:01:08;;;;;;;2.85;2.65;;;;;;;;;;5017872;28;20687;-81
2022/02/28 00:03:37;;;;;;;2.85;2.65;;;;;;;;;;5017947;28;20230;-83
2022/02/28 00:06:04;;;;;;;3.08;2.70;;;;;;;;;;5017748;28;20215;-82
2022/02/28 00:08:32;;;;;;;3.90;3.33;;;;;;;;;;5017164;28;20209;-82
2022/02/28 00:10:59;;;;;;;3.83;3.42;;;;;;;;;;5016530;28;20203;-82
2022/02/28 00:13:26;;;;;;;4.50;4.10;;;;;;;;;;5017156;28;21035;-83
2022/02/28 00:15:54;;;;;;;5.07;3.78;;;;;;;;;;5016968;28;20218;-83
2022/02/28 00:18:22;;;;;;;3.97;3.58;;;;;;;;;;5017736;28;20210;-82
2022/02/28 00:20:50;;;;;;;3.95;3.58;;;;;;;;;;5016784;28;20598;-82
2022/02/28 00:23:18;;;;;;;3.88;3.58;;;;;;;;;;5016970;28;20722;-81
2022/02/28 00:25:45;;;;;;;4.60;4.20;;;;;;;;;;5016890;28;20221;-82
2022/02/28 00:28:13;;;;;;;5.45;3.95;;;;;;;;;;5017305;28;20199;-82
2022/02/28 00:30:41;;;;;;;5.40;4.25;;;;;;;;;;5017391;28;20203;-82
2022/02/28 00:33:08;;;;;;;4.03;3.65;;;;;;;;;;5017055;28;20625;-83
2022/02/28 00:35:37;;;;;;;5.05;4.50;;;;;;;;;;5017141;28;20745;-82
2022/02/28 00:38:05;;;;;;;4.63;4.15;;;;;;;;;;5017288;28;20211;-83
2022/02/28 00:40:33;;;;;;;4.00;3.60;;;;;;;;;;5016870;28;20210;-83
2022/02/28 00:43:01;;;;;;;4.93;4.53;;;;;;;;;;5016717;28;20234;-83
2022/02/28 00:45:28;;;;;;;5.13;4.63;;;;;;;;;;5016877;28;20207;-83
2022/02/28 00:47:56;;;;;;;5.03;4.15;;;;;;;;;;5016749;28;20207;-83
2022/02/28 00:50:23;;;;;;;4.68;4.10;;;;;;;;;;5015369;28;20210;-82
2022/02/28 00:52:52;;;;;;;4.05;3.50;;;;;;;;;;5016090;28;20706;-83
2022/02/28 00:55:20;;;;;;;4.05;3.65;;;;;;;;;;5016736;28;20206;-82
2022/02/28 00:57:47;;;;;;;4.65;4.25;;;;;;;;;;5016468;28;20206;-82
2022/02/28 01:00:17;;;;;;;5.28;4.82;;;;;;;;;;5016118;28;20214;-82
2022/02/28 01:02:45;;;;;;;4.78;4.35;;;;;;;;;;5016461;28;20242;-83
2022/02/28 01:05:13;;;;;;;4.72;4.32;;;;;;;;;;5016110;28;20218;-82
2022/02/28 01:07:40;;;;;;;5.32;4.20;;;;;;;;;;5016871;28;20205;-83
2022/02/28 01:10:12;;;;;;;6.63;5.05;;;;;;;;;;5016691;28;20206;-82
2022/02/28 01:12:40;;;;;;;5.35;4.82;;;;;;;;;;5015853;28;20234;-82
2022/02/28 01:15:11;;;;;;;5.07;4.47;;;;;;;;;;5016512;28;20202;-82
2022/02/28 01:17:39;;;;;;;6.43;5.22;;;;;;;;;;5015682;28;20203;-82
2022/02/28 01:20:08;;;;;;;5.65;4.57;;;;;;;;;;5016221;28;20199;-83
2022/02/28 01:22:35;;;;;;;8.13;4.53;;;;;;;;;;5014993;28;20230;-83
2022/02/28 01:25:03;;;;;;;4.22;3.83;;;;;;;;;;5015575;28;20721;-81
2022/02/28 01:27:32;;;;;;;4.38;3.92;;;;;;;;;;5015506;28;20691;-82
2022/02/28 01:29:59;;;;;;;4.47;4.07;;;;;;;;;;5015298;28;20575;-82
2022/02/28 01:32:27;;;;;;;3.95;3.55;;;;;;;;;;5015248;28;20230;-82
2022/02/28 01:34:54;;;;;;;4.10;3.35;;;;;;;;;;5015510;28;20207;-82
2022/02/28 01:37:21;;;;;;;3.85;3.55;;;;;;;;;;5015810;28;20198;-82
2022/02/28 01:39:49;;;;;;;3.22;2.92;;;;;;;;;;5015536;28;20936;-81
2022/02/28 01:42:17;;;;;;;2.83;2.38;;;;;;;;;;5015262;28;20226;-82
2022/02/28 01:44:45;;;;;;;2.80;2.50;;;;;;;;;;5015359;28;20548;-81
2022/02/28 01:47:13;;;;;;;2.55;2.28;;;;;;;;;;5015956;28;20418;-82
2022/02/28 01:49:41;;;;;;;2.97;2.47;;;;;;;;;;5016284;28;20207;-82
2022/02/28 01:52:09;;;;;;;4.25;3.92;;;;;;;;;;5014843;28;20218;-83
2022/02/28 01:54:36;;;;;;;4.50;4.10;;;;;;;;;;5015507;28;20210;-81
2022/02/28 01:57:04;;;;;;;4.38;3.97;;;;;;;;;;5014976;28;20203;-82
2022/02/28 01:59:32;;;;;;;5.20;4.75;;;;;;;;;;5015454;28;20586;-82
2022/02/28 02:02:01;;;;;;;5.18;4.70;;;;;;;;;;5014702;28;20707;-82
2022/02/28 02:04:28;;;;;;;4.97;4.13;;;;;;;;;;5015101;28;20199;-82
2022/02/28 02:06:55;;;;;;;6.80;5.05;;;;;;;;;;5014257;28;20210;-82
2022/02/28 02:09:23;;;;;;;5.75;4.40;;;;;;;;;;5015527;28;20667;-82
2022/02/28 02:11:50;;;;;;;5.85;4.82;;;;;;;;;;5014452;28;20219;-82
2022/02/28 02:14:18;;;;;;;4.85;4.35;;;;;;;;;;5015080;28;20714;-82
2022/02/28 02:16:45;;;;;;;6.05;4.65;;;;;;;;;;5015117;28;20951;-81
2022/02/28 02:19:14;;;;;;;4.30;3.83;;;;;;;;;;5014904;28;20206;-81
2022/02/28 02:21:42;;;;;;;5.40;4.88;;;;;;;;;;5014362;28;20222;-82
2022/02/28 02:24:10;;;;;;;5.40;4.90;;;;;;;;;;5015709;28;20698;-82
2022/02/28 02:26:37;;;;;;;5.50;4.70;;;;;;;;;;5015334;28;20232;-81
2022/02/28 02:29:05;;;;;;;6.13;5.53;;;;;;;;;;5015136;28;20726;-81
2022/02/28 02:31:32;;;;;;;6.07;5.47;;;;;;;;;;5014294;28;20206;-82
2022/02/28 02:33:59;;;;;;;6.32;5.72;;;;;;;;;;5014300;28;20226;-81
2022/02/28 02:36:28;;;;;;;7.05;5.82;;;;;;;;;;5014915;28;20207;-82
2022/02/28 02:38:57;;;;;;;11.88;7.70;;;;;;;;;;5017570;28;20202;-79
2022/02/28 02:41:24;;;;;;;12.07;9.82;;;;;;;;;;5022827;28;20210;-79
2022/02/28 02:43:51;;;;;;;14.15;11.02;;;;;;;;;;5020711;28;20214;-81
2022/02/28 02:46:18;;;;;;;15.93;10.82;;;;;;;;;;5015159;28;20671;-81
2022/02/28 02:48:46;;;;;;;10.35;7.40;;;;;;;;;;5014990;28;20203;-83
2022/02/28 02:51:16;;;;;;;8.75;6.80;;;;;;;;;;5014632;28;20207;-81
2022/02/28 02:53:43;;;;;;;9.60;7.80;;;;;;;;;;5014556;28;20227;-81
2022/02/28 02:56:14;;;;;;;7.95;6.70;;;;;;;;;;5014583;28;20206;-81
2022/02/28 02:58:42;;;;;;;9.38;7.50;;;;;;;;;;5014658;28;20207;-81
2022/02/28 03:01:09;;;;;;;9.32;7.82;;;;;;;;;;5014354;28;20575;-81
2022/02/28 03:03:36;;;;;;;8.45;6.85;;;;;;;;;;5014440;28;20245;-82
2022/02/28 03:06:04;;;;;;;7.05;6.03;;;;;;;;;;5014375;28;20203;-82
2022/02/28 03:08:31;;;;;;;9.77;7.00;;;;;;;;;;5014312;28;20698;-81
2022/02/28 03:10:58;;;;;;;6.43;5.80;;;;;;;;;;5015242;28;20206;-81
2022/02/28 03:13:27;;;;;;;7.38;5.75;;;;;;;;;;5021399;28;20234;-80
2022/02/28 03:15:54;;;;;;;8.23;6.20;;;;;;;;;;5026097;28;20294;-80
2022/02/28 03:18:21;;;;;;;7.38;6.30;;;;;;;;;;5025349;28;20233;-79
2022/02/28 03:20:49;;;;;;;7.85;6.78;;;;;;;;;;5025107;28;20210;-79
2022/02/28 03:23:18;;;;;;;7.32;6.65;;;;;;;;;;5025062;28;20703;-79
2022/02/28 03:25:45;;;;;;;6.30;5.68;;;;;;;;;;5025595;28;20210;-79
2022/02/28 03:28:12;;;;;;;6.38;5.78;;;;;;;;;;5025275;28;20202;-79
2022/02/28 03:30:41;;;;;;;6.65;5.63;;;;;;;;;;5025898;28;20207;-79
2022/02/28 03:33:08;;;;;;;7.20;6.10;;;;;;;;;;5025018;28;20245;-79
2022/02/28 03:35:36;;;;;;;9.85;7.20;;;;;;;;;;5025392;28;20214;-79
2022/02/28 03:38:03;;;;;;;8.05;6.70;;;;;;;;;;5024354;28;20207;-79
2022/02/28 03:40:31;;;;;;;7.60;6.28;;;;;;;;;;5025116;28;20246;-80
2022/02/28 03:43:00;;;;;;;7.55;6.80;;;;;;;;;;5024527;28;20609;-80
2022/02/28 03:45:28;;;;;;;11.13;7.80;;;;;;;;;;5024010;28;20662;-81
2022/02/28 03:47:56;;;;;;;7.20;6.47;;;;;;;;;;5017140;28;20218;-81
2022/02/28 03:50:24;;;;;;;8.32;6.55;;;;;;;;;;5017273;28;20199;-82
2022/02/28 03:52:52;;;;;;;6.93;6.22;;;;;;;;;;5016672;28;20346;-83
2022/02/28 03:55:19;;;;;;;7.30;6.38;;;;;;;;;;5016696;28;20229;-81
2022/02/28 03:57:47;;;;;;;7.93;6.60;;;;;;;;;;5016728;28;20649;-81
2022/02/28 04:00:15;;;;;;;7.68;6.82;;;;;;;;;;5017291;28;20206;-81
2022/02/28 04:02:43;;;;;;;7.13;6.00;;;;;;;;;;5016229;28;20215;-81
2022/02/28 04:05:12;;;;;;;7.85;6.93;;;;;;;;;;5015755;28;20206;-81
2022/02/28 04:07:40;;;;;;;8.27;7.15;;;;;;;;;;5016803;28;20211;-81
2022/02/28 04:10:08;;;;;;;9.43;7.97;;;;;;;;;;5016732;28;20199;-80
2022/02/28 04:12:35;;;;;;;6.80;6.15;;;;;;;;;;5016155;28;20230;-81
2022/02/28 04:15:03;;;;;;;9.10;7.80;;;;;;;;;;5015971;28;20233;-81
2022/02/28 04:17:31;;;;;;;7.13;6.38;;;;;;;;;;5015726;28;20210;-80
2022/02/28 04:19:58;;;;;;;6.28;5.45;;;;;;;;;;5016164;28;20205;-80
2022/02/28 04:22:27;;;;;;;6.25;5.65;;;;;;;;;;5015661;28;20636;-81
2022/02/28 04:24:54;;;;;;;6.93;6.18;;;;;;;;;;5015607;28;20265;-81
2022/02/28 04:27:21;;;;;;;5.25;4.75;;;;;;;;;;5016439;28;20218;-80
2022/02/28 04:29:48;;;;;;;9.85;6.25;;;;;;;;;;5015352;28;20211;-81
2022/02/28 04:32:16;;;;;;;6.70;6.00;;;;;;;;;;5041160;22;20205;-82
2022/02/28 04:34:43;;;;;;;10.15;6.75;;;;;;;;;;5055383;28;20275;-81
2022/02/28 04:37:11;;;;;;;7.53;6.72;;;;;;;;;;5056544;28;20459;-82
2022/02/28 04:39:39;;;;;;;7.43;6.05;;;;;;;;;;5055128;28;20209;-81
2022/02/28 04:42:07;;;;;;;9.35;6.25;;;;;;;;;;5055864;28;20204;-82
2022/02/28 04:44:35;;;;;;;7.00;6.03;;;;;;;;;;5055745;28;20563;-81
2022/02/28 04:47:02;;;;;;;7.38;6.53;;;;;;;;;;5055644;28;20197;-82
2022/02/28 04:49:30;;;;;;;10.65;6.30;;;;;;;;;;5055073;28;20698;-81
2022/02/28 04:51:57;;;;;;;6.88;5.90;;;;;;;;;;5057584;28;20206;-83
2022/02/28 04:54:24;;;;;;;7.45;6.45;;;;;;;;;;5056010;28;20230;-82
2022/02/28 04:56:53;;;;;;;7.90;6.15;;;;;;;;;;5056799;28;20200;-82
2022/02/28 04:59:20;;;;;;;7.47;6.18;;;;;;;;;;5056819;28;20202;-81
2022/02/28 05:01:47;;;;;;;7.25;6.20;;;;;;;;;;5054415;28;20209;-80
2022/02/28 05:04:15;;;;;;;7.82;6.68;;;;;;;;;;5054067;28;20320;-82
2022/02/28 05:06:42;;;;;;;10.40;7.03;;;;;;;;;;5054315;28;20666;-82
2022/02/28 05:09:09;;;;;;;9.00;6.53;;;;;;;;;;5054040;28;20213;-82
2022/02/28 05:11:37;;;;;;;9.48;8.38;;;;;;;;;;5055168;28;20201;-82
2022/02/28 05:14:05;;;;;;;9.45;7.22;;;;;;;;;;5054733;28;20221;-82
2022/02/28 05:16:33;;;;;;;10.98;7.65;;;;;;;;;;5054899;28;20202;-82
2022/02/28 05:19:00;;;;;;;7.47;6.78;;;;;;;;;;5055467;28;20205;-81
2022/02/28 05:21:27;;;;;;;7.45;6.65;;;;;;;;;;5056020;28;20205;-83
2022/02/28 05:23:55;;;;;;;7.80;6.97;;;;;;;;;;5054733;28;20225;-81
2022/02/28 05:26:22;;;;;;;9.98;7.53;;;;;;;;;;5055330;28;20201;-81
2022/02/28 05:28:49;;;;;;;8.80;6.95;;;;;;;;;;5055519;28;20209;-82
2022/02/28 05:31:18;;;;;;;8.75;6.82;;;;;;;;;;5055811;28;20201;-82
2022/02/28 05:33:45;;;;;;;7.70;6.22;;;;;;;;;;5055263;28;20238;-81
2022/02/28 05:36:12;;;;;;;6.60;5.93;;;;;;;;;;5054811;28;20229;-80
2022/02/28 05:38:40;;;;;;;10.50;6.00;;;;;;;;;;5053435;28;20189;-81
2022/02/28 05:41:07;;;;;;;7.22;6.50;;;;;;;;;;5053641;28;20209;-80
2022/02/28 05:43:34;;;;;;;8.00;6.63;;;;;;;;;;5053903;28;20222;-82
2022/02/28 05:46:02;;;;;;;7.05;6.25;;;;;;;;;;5055192;28;20208;-82
2022/02/28 05:48:30;;;;;;;6.13;5.38;;;;;;;;;;5062631;28;20209;-83
2022/02/28 05:50:58;;;;;;;8.73;6.32;;;;;;;;;;5060405;28;20201;-83
2022/02/28 05:53:25;;;;;;;7.63;5.78;;;;;;;;;;5062914;28;20228;-83
2022/02/28 05:55:52;;;;;;;10.02;6.75;;;;;;;;;;5065313;28;20232;-84
2022/02/28 05:58:19;;;;;;;7.93;6.10;;;;;;;;;;5067499;28;20198;-83
2022/02/28 06:00:48;;;;;;;7.22;6.53;;;;;;;;;;5067427;28;20198;-83
2022/02/28 06:03:15;;;;;;;6.80;5.70;;;;;;;;;;5068227;28;20218;-84
2022/02/28 06:05:44;;;;;;;9.10;6.68;;;;;;;;;;5066137;28;20658;-84
2022/02/28 06:08:11;;;;;;;12.10;6.65;;;;;;;;;;5066146;28;20201;-84
2022/02/28 06:10:38;;;;;;;7.32;6.45;;;;;;;;;;5064951;28;20210;-82
2022/02/28 06:13:06;;;;;;;9.20;6.63;;;;;;;;;;5063538;28;20222;-84
2022/02/28 06:15:33;;;;;;;6.75;5.82;;;;;;;;;;5063711;28;20755;-85
2022/02/28 06:18:01;;;;;;;7.78;6.18;;;;;;;;;;5064957;28;20283;-82
2022/02/28 06:20:29;;;;;;;8.30;6.63;;;;;;;;;;5062634;28;20205;-83
2022/02/28 06:22:57;;;;;;;7.35;6.28;;;;;;;;;;5064649;28;20229;-83
2022/02/28 06:25:24;;;;;;;9.25;6.88;;;;;;;;;;5064741;28;20205;-84
2022/02/28 06:27:53;;;;;;;9.13;6.60;;;;;;;;;;5062033;28;20201;-83
2022/02/28 06:30:20;;;;;;;11.02;7.60;;;;;;;;;;5062612;28;20206;-84
2022/02/28 06:32:47;;;;;;;7.72;6.63;;;;;;;;;;5064146;28;20237;-84
2022/02/28 06:35:15;;;;;;;8.10;6.97;;;;;;;;;;5063918;28;20767;-84
2022/02/28 06:37:42;;;;;;;8.80;6.72;;;;;;;;;;5065322;28;20213;-84
2022/02/28 06:40:12;;;;;;;9.00;7.95;;;;;;;;;;5063232;28;20212;-83
2022/02/28 06:42:39;;;;;;;7.78;6.50;;;;;;;;;;5062599;28;20237;-83
2022/02/28 06:45:08;;;;;;;9.43;6.70;;;;;;;;;;5060463;28;20202;-83
2022/02/28 06:47:35;;;;;;;7.57;6.10;;;;;;;;;;5061993;28;20206;-84
2022/02/28 06:50:03;;;;;;;7.45;6.72;;;;;;;;;;5064958;28;20275;-83
2022/02/28 06:52:30;;;;;;;6.25;5.53;;;;;;;;;;5064282;28;20298;-82
2022/02/28 06:54:58;;;;;;;6.00;5.40;;;;;;;;;;5062528;28;20209;-82
2022/02/28 06:57:26;;;;;;;5.47;4.95;;;;;;;;;;5061378;28;20232;-83
2022/02/28 06:59:54;;;;;;;7.32;5.72;;;;;;;;;;5061948;28;20212;-83
2022/02/28 07:02:21;;;;;;;7.50;5.90;;;;;;;;;;5063751;28;20233;-83
2022/02/28 07:04:48;;;;;;;6.82;6.20;;;;;;;;;;5064712;28;20209;-84
2022/02/28 07:07:18;;;;;;;6.80;5.10;;;;;;;;;;5064207;28;20208;-82
2022/02/28 07:09:46;;;;;;;4.50;4.10;;;;;;;;;;5064912;28;20205;-83
2022/02/28 07:12:14;;;;;;;4.70;4.20;;;;;;;;;;5065934;28;20201;-83
2022/02/28 07:14:43;;;;;;;5.15;4.65;;;;;;;;;;5066816;28;20721;-84
2022/02/28 07:17:11;;;;;;;8.90;5.22;;;;;;;;;;5066972;28;20231;-84
2022/02/28 07:19:38;;;;;;;7.47;4.88;;;;;;;;;;5066874;28;20197;-84
2022/02/28 07:22:06;;;;;;;5.45;4.22;;;;;;;;;;5069352;28;20231;-85
2022/02/28 07:24:33;;;;;;;5.93;5.32;;;;;;;;;;5070145;28;20213;-84
2022/02/28 07:27:01;;;;;;;7.88;6.57;;;;;;;;;;5068510;28;20452;-84
2022/02/28 07:29:28;;;;;;;6.13;5.47;;;;;;;;;;5069280;28;20280;-84
2022/02/28 07:31:57;;;;;;;8.80;5.13;;;;;;;;;;5065758;28;20208;-83
2022/02/28 07:34:25;;;;;;;6.93;5.78;;;;;;;;;;5067164;28;20705;-84
2022/02/28 07:36:52;;;;;;;5.93;5.32;;;;;;;;;;5065733;28;20229;-83
2022/02/28 07:39:20;;;;;;;5.53;4.53;;;;;;;;;;5065764;28;20554;-83
2022/02/28 07:41:48;;;;;;;5.30;4.78;;;;;;;;;;5066857;28;20201;-84
2022/02/28 07:44:15;;;;;;;4.95;4.45;;;;;;;;;;5065243;28;20511;-84
2022/02/28 07:46:43;;;;;;;6.63;5.07;;;;;;;;;;5067329;28;20586;-84
2022/02/28 07:49:12;;;;;;;5.00;4.50;;;;;;;;;;5067520;28;20657;-84
2022/02/28 07:51:39;;;;;;;4.82;4.40;;;;;;;;;;5066945;28;20224;-84
2022/02/28 07:54:07;;;;;;;5.43;4.93;;;;;;;;;;5065470;28;20226;-85
2022/02/28 07:56:34;;;;;;;5.90;5.30;;;;;;;;;;5064345;28;20582;-83
2022/02/28 07:59:01;;;;;;;5.22;4.80;;;;;;;;;;5065313;28;20625;-84
2022/02/28 08:01:29;;;;;;;9.00;5.18;;;;;;;;;;5062483;28;20217;-84
2022/02/28 08:03:56;;;;;;;7.13;5.95;;;;;;;;;;5061207;28;20690;-85
2022/02/28 08:06:25;;;;;;;5.93;5.32;;;;;;;;;;5064721;28;20198;-84
2022/02/28 08:08:52;;;;;;;7.45;6.30;;;;;;;;;;5059726;28;20205;-84
2022/02/28 08:11:19;;;;;;;8.50;7.60;;;;;;;;;;5066432;28;20201;-84
2022/02/28 08:13:47;;;;;;;9.88;8.80;;;;;;;;;;5057876;28;20221;-84
2022/02/28 08:16:14;;;;;;;9.15;7.85;;;;;;;;;;5060485;28;20232;-85
2022/02/28 08:18:42;;;;;;;12.05;8.35;;;;;;;;;;5065317;28;20626;-84
2022/02/28 08:21:09;;;;;;;9.13;7.82;;;;;;;;;;5064815;28;20293;-84
2022/02/28 08:23:39;;;;;;;10.30;8.35;;;;;;;;;;5064330;28;20225;-84
2022/02/28 08:26:07;;;;;;;11.10;9.38;;;;;;;;;;5064528;28;20657;-84
2022/02/28 08:28:35;;;;;;;8.27;6.95;;;;;;;;;;5063243;28;20214;-84
2022/02/28 08:31:02;;;;;;;10.80;8.55;;;;;;;;;;5057446;28;20209;-84
2022/02/28 08:33:30;;;;;;;9.68;8.68;;;;;;;;;;5063659;28;20241;-85
2022/02/28 08:35:57;;;;;;;10.52;9.52;;;;;;;;;;5059252;28;20225;-84
2022/02/28 08:38:25;;;;;;;11.98;7.82;;;;;;;;;;5065019;28;20292;-84
2022/02/28 08:40:55;;;;;;;11.05;9.10;;;;;;;;;;5065657;28;20763;-85
2022/02/28 08:43:22;;;;;;;11.75;10.00;;;;;;;;;;5064794;28;20264;-84
2022/02/28 08:45:50;;;;;;;10.25;8.95;;;;;;;;;;5057914;28;20206;-85
2022/02/28 08:48:17;;;;;;;12.95;10.52;;;;;;;;;;5063599;28;20202;-85
2022/02/28 08:50:45;;;;;;;12.38;11.00;;;;;;;;;;5060797;28;20716;-85
2022/02/28 08:53:12;;;;;;;10.38;9.13;;;;;;;;;;5056224;28;20328;-85
2022/02/28 08:55:40;;;;;;;10.82;9.13;;;;;;;;;;5062862;28;20214;-85
2022/02/28 08:58:09;;;;;;;9.68;8.68;;;;;;;;;;5062791;28;20225;-85
2022/02/28 09:00:39;;;;;;;13.07;9.98;;;;;;;;;;5062163;28;20546;-85
2022/02/28 09:03:11;;;;;;;11.07;9.52;;;;;;;;;;5060818;28;20224;-85
2022/02/28 09:08:34;;;;;;;10.05;8.98;;;;;;;;;;5053361;28;20241;-84
2022/02/28 09:11:21;;;;;;;8.55;7.72;;;;;;;;;;5062646;28;20212;-85
2022/02/28 09:14:08;;;;;;;10.60;8.55;;;;;;;;;;5064158;28;20293;-84
2022/02/28 09:16:56;;;;;;;10.57;9.18;;;;;;;;;;5062914;28;20212;-85
2022/02/28 09:23:12;;;;;;;10.82;9.63;;;;;;;;;;5054279;28;20226;-84
2022/02/28 09:26:21;;;;;;;;;;;;;;;;;;;;;
2022/02/28 09:29:17;;;;;;;9.88;8.88;;;;;;;;;;5063308;28;20205;-85
2022/02/28 09:31:56;;;;;;;12.98;8.70;;;;;;;;;;5061395;28;20693;-84
2022/02/28 09:34:40;;;;;;;10.10;9.10;;;;;;;;;;5059451;28;20202;-84
2022/02/28 09:37:46;;;;;;;9.27;8.27;;;;;;;;;;5059374;28;20225;-84
2022/02/28 09:40:34;;;;;;;8.82;7.32;;;;;;;;;;5050723;28;20236;-85
2022/02/28 09:46:09;;;;;;;9.02;8.13;;;;;;;;;;5058504;28;20209;-83
2022/02/28 09:52:17;;;;;;;7.47;6.38;;;;;;;;;;5051315;28;20240;-83
2022/02/28 09:55:20;;;;;;;;;;;;;;;;;;;;;
2022/02/28 09:58:18;;;;;;;8.63;7.78;;;;;;;;;;5054465;28;20579;-82
2022/02/28 10:01:03;;;;;;;9.50;8.48;;;;;;;;;;5057217;28;20232;-83
2022/02/28 10:03:52;;;;;;;9.05;7.82;;;;;;;;;;5057068;28;20236;-83
2022/02/28 10:06:40;;;;;;;7.97;7.15;;;;;;;;;;5057563;28;20213;-85
2022/02/28 10:09:26;;;;;;;7.10;6.45;;;;;;;;;;5053934;28;20209;-83
2022/02/28 10:12:16;;;;;;;7.15;6.43;;;;;;;;;;5058352;28;20240;-84
2022/02/28 10:19:12;;;;;;;6.88;6.20;;;;;;;;;;5014999;28;20606;-83
2022/02/28 10:25:15;;;;;;;6.85;6.03;;;;;;;;;;5062476;28;20747;-83
2022/02/28 10:27:59;;;;;;;6.10;5.57;;;;;;;;;;5061052;28;20205;-83
2022/02/28 10:30:35;;;;;;;7.60;6.90;;;;;;;;;;5055680;28;20666;-83
2022/02/28 10:33:09;;;;;;;7.28;6.35;;;;;;;;;;5061298;28;20893;-84
2022/02/28 10:36:01;;;;;;;6.85;6.10;;;;;;;;;;5061773;28;20224;-84
2022/02/28 10:38:30;;;;;;;7.28;5.70;;;;;;;;;;5059973;28;20647;-83
2022/02/28 10:40:57;;;;;;;6.07;5.45;;;;;;;;;;5059266;28;20209;-83
2022/02/28 10:43:31;;;;;;;7.00;6.30;;;;;;;;;;5060078;28;20233;-84
2022/02/28 10:46:19;;;;;;;6.43;5.68;;;;;;;;;;5060274;28;20201;-84
2022/02/28 10:49:17;;;;;;;6.95;6.28;;;;;;;;;;5060681;28;20267;-83
2022/02/28 10:52:03;;;;;;;5.18;4.68;;;;;;;;;;5061137;28;20210;-83
2022/02/28 10:54:43;;;;;;;5.82;5.20;;;;;;;;;;5056417;28;20213;-83
2022/02/28 10:57:38;;;;;;;;;;;;;;;;;;;;;
2022/02/28 11:00:25;;;;;;;5.80;5.22;;;;;;;;;;5056385;28;20202;-83
2022/02/28 11:03:13;;;;;;;5.53;5.00;;;;;;;;;;5060623;28;20230;-84
2022/02/28 11:06:02;;;;;;;5.82;5.32;;;;;;;;;;5053905;28;20213;-83
2022/02/28 11:11:43;;;;;;;6.10;5.35;;;;;;;;;;5058089;28;20807;-84
2022/02/28 11:14:26;;;;;;;4.90;4.40;;;;;;;;;;5060396;28;20214;-83
2022/02/28 11:17:32;;;;;;;4.70;3.92;;;;;;;;;;5058115;28;20221;-83
2022/02/28 11:20:12;;;;;;;5.53;4.20;;;;;;;;;;5058567;28;20210;-83
2022/02/28 11:22:58;;;;;;;4.60;4.20;;;;;;;;;;5058253;28;20256;-83
2022/02/28 11:25:30;;;;;;;5.72;5.22;;;;;;;;;;5053084;28;20256;-83
2022/02/28 11:28:08;;;;;;;6.50;5.90;;;;;;;;;;5058990;28;20202;-83
2022/02/28 11:30:41;;;;;;;7.40;5.47;;;;;;;;;;5058423;28;20290;-84
2022/02/28 11:33:20;;;;;;;5.10;4.57;;;;;;;;;;5057582;28;20613;-83
2022/02/28 11:36:19;;;;;;;5.82;5.00;;;;;;;;;;5057313;28;20669;-83
2022/02/28 11:39:44;;;;;;;4.95;4.55;;;;;;;;;;5058494;28;20312;-84
2022/02/28 11:42:40;;;;;;;6.82;4.80;;;;;;;;;;5059531;28;20206;-83
2022/02/28 11:45:29;;;;;;;6.00;5.40;;;;;;;;;;5057679;28;20224;-83
2022/02/28 11:48:26;;;;;;;5.13;4.28;;;;;;;;;;5059597;28;20277;-84
2022/02/28 11:51:39;;;;;;;4.45;4.05;;;;;;;;;;5055386;28;20213;-83
2022/02/28 11:54:36;;;;;;;;;;;;;;;;;;;;;
2022/02/28 11:59:56;;;;;;;5.90;5.40;;;;;;;;;;5050357;28;20600;-83
2022/02/28 12:02:26;;;;;;;5.13;4.63;;;;;;;;;;5051640;28;20232;-84
2022/02/28 12:04:58;;;;;;;4.82;4.43;;;;;;;;;;5058760;28;20213;-84
2022/02/28 12:07:35;;;;;;;3.55;3.20;;;;;;;;;;5058564;28;20360;-83
2022/02/28 12:10:09;;;;;;;3.92;3.63;;;;;;;;;;5057200;28;20684;-84
2022/02/28 12:12:38;;;;;;;4.93;4.05;;;;;;;;;;5059668;28;20236;-84
2022/02/28 12:15:26;;;;;;;4.80;4.30;;;;;;;;;;5058598;28;20289;-83
2022/02/28 12:18:03;;;;;;;4.00;3.70;;;;;;;;;;5051993;28;20206;-83
2022/02/28 12:20:40;;;;;;;3.55;3.25;;;;;;;;;;5053951;28;20254;-83
2022/02/28 12:23:36;;;;;;;3.83;3.53;;;;;;;;;;5056875;28;20237;-83
2022/02/28 12:26:17;;;;;;;4.07;3.60;;;;;;;;;;5056850;28;20197;-83
2022/02/28 12:29:16;;;;;;;;;;;;;;;;;;;;;
2022/02/28 12:32:04;;;;;;;2.85;2.65;;;;;;;;;;5039011;28;20273;-83
2022/02/28 12:34:40;;;;;;;3.47;3.17;;;;;;;;;;5057958;28;20212;-83
2022/02/28 12:40:37;;;;;;;3.78;3.47;;;;;;;;;;5054953;28;20221;-83
2022/02/28 12:43:18;;;;;;;4.30;3.90;;;;;;;;;;5055268;28;20225;-82
2022/02/28 12:52:30;;;;;;;2.90;2.70;;;;;;;;;;5037016;28;20210;-83
2022/02/28 12:55:12;;;;;;;3.92;3.20;;;;;;;;;;5059655;28;20217;-84
2022/02/28 12:57:53;;;;;;;3.58;3.28;;;;;;;;;;5059331;28;20237;-84
2022/02/28 13:00:43;;;;;;;4.85;4.45;;;;;;;;;;5059297;28;20603;-83
2022/02/28 13:03:17;;;;;;;3.85;3.53;;;;;;;;;;5060157;28;20236;-84
2022/02/28 13:06:10;;;;;;;2.67;2.47;;;;;;;;;;5059730;28;20670;-83
2022/02/28 13:08:52;;;;;;;3.38;3.17;;;;;;;;;;5059058;28;20216;-83
2022/02/28 13:11:31;;;;;;;4.10;3.75;;;;;;;;;;5059484;28;20213;-83
2022/02/28 13:14:10;;;;;;;3.85;3.55;;;;;;;;;;5059667;28;20221;-84
2022/02/28 13:16:52;;;;;;;5.40;3.95;;;;;;;;;;5059916;28;20241;-83
2022/02/28 13:19:33;;;;;;;3.40;3.20;;;;;;;;;;5060314;28;20225;-83
2022/02/28 13:22:11;;;;;;;3.75;3.45;;;;;;;;;;5054762;28;20209;-83
2022/02/28 13:25:03;;;;;;;3.97;3.67;;;;;;;;;;5060990;28;20211;-84
2022/02/28 13:27:49;;;;;;;4.60;3.75;;;;;;;;;;5061277;28;20219;-84
2022/02/28 13:30:23;;;;;;;3.67;3.28;;;;;;;;;;5061888;28;20671;-85
2022/02/28 13:33:05;;;;;;;3.28;2.97;;;;;;;;;;5061700;28;20236;-84
2022/02/28 13:41:39;;;;;;;3.78;3.45;;;;;;;;;;5058204;28;20205;-84
2022/02/28 13:44:22;;;;;;;2.80;2.60;;;;;;;;;;5059030;28;20226;-84
2022/02/28 13:47:33;;;;;;;2.60;2.40;;;;;;;;;;5059991;28;20206;-83
2022/02/28 13:50:35;;;;;;;3.92;3.60;;;;;;;;;;5044426;28;20234;-84
2022/02/28 13:53:19;;;;;;;4.65;4.25;;;;;;;;;;5060254;28;20233;-85
2022/02/28 13:55:53;;;;;;;4.35;3.95;;;;;;;;;;5054307;28;20619;-84
2022/02/28 13:58:30;;;;;;;4.97;4.47;;;;;;;;;;5059150;28;20215;-84
2022/02/28 14:00:59;;;;;;;4.85;4.45;;;;;;;;;;5060885;28;20279;-83
2022/02/28 14:03:30;;;;;;;5.57;3.72;;;;;;;;;;5061309;28;20222;-84
2022/02/28 14:05:59;;;;;;;4.60;4.10;;;;;;;;;;5061338;28;20681;-84
2022/02/28 14:08:29;;;;;;;6.03;4.90;;;;;;;;;;5060447;28;20545;-84
2022/02/28 14:11:05;;;;;;;3.88;3.58;;;;;;;;;;5060159;28;20210;-83
2022/02/28 14:13:37;;;;;;;4.82;4.00;;;;;;;;;;5058456;28;20221;-83
2022/02/28 14:16:16;;;;;;;4.22;3.83;;;;;;;;;;5058587;28;20217;-84
2022/02/28 14:19:09;;;;;;;5.25;4.72;;;;;;;;;;5053642;28;20219;-83
2022/02/28 14:21:39;;;;;;;4.32;3.67;;;;;;;;;;5060541;28;20209;-81
2022/02/28 14:24:10;;;;;;;4.65;4.25;;;;;;;;;;5060674;28;20229;-84
2022/02/28 14:26:41;;;;;;;5.47;4.32;;;;;;;;;;5060646;28;20209;-84
2022/02/28 14:29:11;;;;;;;6.18;4.30;;;;;;;;;;5057578;28;20625;-84
2022/02/28 14:31:47;;;;;;;4.43;4.03;;;;;;;;;;5053396;28;20271;-84
2022/02/28 14:34:15;;;;;;;4.50;3.97;;;;;;;;;;5051940;28;20237;-83
2022/02/28 14:36:43;;;;;;;5.18;4.70;;;;;;;;;;5054346;28;20201;-84
2022/02/28 14:39:14;;;;;;;5.65;4.32;;;;;;;;;;5055114;28;20725;-83
2022/02/28 14:41:43;;;;;;;4.70;4.00;;;;;;;;;;5047859;28;20209;-85
2022/02/28 14:44:14;;;;;;;3.50;3.20;;;;;;;;;;5050342;28;20713;-84
2022/02/28 14:46:43;;;;;;;4.47;4.07;;;;;;;;;;5058670;28;20735;-84
2022/02/28 14:49:11;;;;;;;6.13;5.63;;;;;;;;;;5058518;28;20217;-81
2022/02/28 14:51:40;;;;;;;4.80;4.40;;;;;;;;;;5059180;28;20210;-84
2022/02/28 14:54:08;;;;;;;4.72;4.32;;;;;;;;;;5061255;28;20225;-86
2022/02/28 14:56:38;;;;;;;6.03;4.90;;;;;;;;;;5060897;28;20602;-84
2022/02/28 14:59:07;;;;;;;5.00;4.00;;;;;;;;;;5062750;28;20205;-84
2022/02/28 15:01:35;;;;;;;5.40;4.32;;;;;;;;;;5063295;28;20225;-85
2022/02/28 15:04:02;;;;;;;5.78;5.25;;;;;;;;;;5057158;28;20225;-86
2022/02/28 15:06:29;;;;;;;5.20;4.80;;;;;;;;;;5057572;28;20685;-84
2022/02/28 15:08:57;;;;;;;4.80;3.78;;;;;;;;;;5062003;28;20209;-85
2022/02/28 15:11:24;;;;;;;4.20;3.90;;;;;;;;;;5062237;28;20231;-86
2022/02/28 15:13:59;;;;;;;4.63;3.58;;;;;;;;;;5062725;28;20222;-84
2022/02/28 15:16:34;;;;;;;5.72;4.95;;;;;;;;;;5063624;28;20205;-85
2022/02/28 15:19:01;;;;;;;4.85;4.45;;;;;;;;;;5064437;28;20629;-83
2022/02/28 15:21:28;;;;;;;4.30;3.90;;;;;;;;;;5064332;28;20225;-84
2022/02/28 15:23:56;;;;;;;4.80;4.32;;;;;;;;;;5062855;28;20595;-84
2022/02/28 15:26:23;;;;;;;5.28;4.80;;;;;;;;;;5065476;28;20417;-84
2022/02/28 15:28:50;;;;;;;4.65;4.15;;;;;;;;;;5064108;28;20212;-84
2022/02/28 15:31:18;;;;;;;4.75;4.35;;;;;;;;;;5064688;28;20212;-84
2022/02/28 15:33:47;;;;;;;5.25;4.80;;;;;;;;;;5062967;28;20233;-83
2022/02/28 15:36:14;;;;;;;4.18;3.78;;;;;;;;;;5063870;28;20256;-83
2022/02/28 15:38:41;;;;;;;4.65;4.18;;;;;;;;;;5063191;28;20197;-83
2022/02/28 15:41:09;;;;;;;5.25;4.75;;;;;;;;;;5062331;28;20229;-86
2022/02/28 15:43:36;;;;;;;6.82;4.97;;;;;;;;;;5058611;28;20232;-84
2022/02/28 15:46:04;;;;;;;5.68;5.18;;;;;;;;;;5062709;28;20202;-83
2022/02/28 15:48:32;;;;;;;5.10;4.60;;;;;;;;;;5068433;28;20228;-85
2022/02/28 15:51:00;;;;;;;5.68;5.07;;;;;;;;;;5065638;28;20201;-85
2022/02/28 15:53:51;;;;;;;5.43;4.93;;;;;;;;;;5065091;28;20225;-82
2022/02/28 15:56:48;;;;;;;3.85;3.42;;;;;;;;;;5066201;28;20220;-83
2022/02/28 15:59:32;;;;;;;4.32;3.92;;;;;;;;;;5032953;28;20607;-84